createdAt,value
2018-03-26T00:00:12.310Z,23.67
2018-03-26T00:02:45.295Z,22.70
2018-03-26T00:05:18.192Z,24.87
2018-03-26T00:07:52.082Z,24.53
2018-03-26T00:10:25.059Z,23.00
2018-03-26T00:12:58.556Z,23.83
2018-03-26T00:15:32.444Z,24.13
2018-03-26T00:18:05.705Z,24.40
2018-03-26T00:20:38.586Z,24.60
2018-03-26T00:23:12.178Z,24.13
2018-03-26T00:25:45.431Z,25.57
2018-03-26T00:28:18.639Z,26.23
2018-03-26T00:30:52.321Z,24.47
2018-03-26T00:33:25.583Z,25.03
2018-03-26T00:35:58.859Z,25.57
2018-03-26T00:38:32.396Z,24.97
2018-03-26T00:41:05.297Z,24.27
2018-03-26T00:43:38.601Z,24.37
2018-03-26T00:46:12.000Z,25.70
2018-03-26T00:48:45.715Z,25.50
2018-03-26T00:51:21.793Z,27.47
2018-03-26T00:53:55.443Z,26.63
2018-03-26T00:56:29.126Z,26.63
2018-03-26T00:59:02.449Z,24.50
2018-03-26T01:01:35.817Z,27.10
2018-03-26T01:04:09.259Z,26.87
2018-03-26T01:06:42.740Z,25.73
2018-03-26T01:09:16.042Z,26.37
2018-03-26T01:11:50.069Z,25.00
2018-03-26T01:14:23.624Z,26.07
2018-03-26T01:16:57.231Z,25.33
2018-03-26T01:19:30.727Z,24.93
2018-03-26T01:22:03.598Z,25.67
2018-03-26T01:24:36.907Z,25.93
2018-03-26T01:27:10.223Z,25.63
2018-03-26T01:29:43.384Z,24.60
2018-03-26T01:32:16.411Z,27.30
2018-03-26T01:34:50.486Z,25.40
2018-03-26T01:37:24.701Z,25.80
2018-03-26T01:39:58.177Z,27.13
2018-03-26T01:42:30.999Z,25.33
2018-03-26T01:45:04.295Z,25.73
2018-03-26T01:47:37.540Z,27.10
2018-03-26T01:50:10.438Z,24.67
2018-03-26T01:52:44.609Z,24.00
2018-03-26T01:55:17.510Z,24.83
2018-03-26T01:57:50.611Z,24.37
2018-03-26T02:00:26.411Z,24.80
2018-03-26T02:02:59.307Z,26.03
2018-03-26T02:05:32.198Z,27.83
2018-03-26T02:08:06.237Z,26.63
2018-03-26T02:10:39.134Z,26.60
2018-03-26T02:13:13.359Z,24.90
2018-03-26T02:15:48.972Z,24.00
2018-03-26T02:18:23.170Z,25.20
2018-03-26T02:20:56.333Z,27.07
2018-03-26T02:23:29.618Z,24.40
2018-03-26T02:26:02.457Z,25.53
2018-03-26T02:28:35.870Z,25.63
2018-03-26T02:31:09.276Z,27.73
2018-03-26T02:33:42.086Z,26.33
2018-03-26T02:36:14.940Z,29.27
2018-03-26T02:41:30.033Z,27.90
2018-03-26T02:44:03.083Z,26.33
2018-03-26T02:46:36.112Z,26.00
2018-03-26T02:49:10.284Z,25.87
2018-03-26T02:51:43.582Z,29.13
2018-03-26T02:54:16.580Z,25.67
2018-03-26T02:56:50.006Z,27.23
2018-03-26T02:59:22.956Z,27.23
2018-03-26T03:01:56.545Z,26.77
2018-03-26T03:04:30.710Z,27.17
2018-03-26T03:07:04.073Z,26.47
2018-03-26T03:09:37.791Z,28.97
2018-03-26T03:12:11.079Z,26.33
2018-03-26T03:14:43.958Z,25.13
2018-03-26T03:17:16.935Z,24.53
2018-03-26T03:19:50.227Z,23.93
2018-03-26T03:22:23.166Z,24.03
2018-03-26T03:24:56.321Z,26.87
2018-03-26T03:27:29.213Z,26.00
2018-03-26T03:30:02.235Z,25.50
2018-03-26T03:32:35.439Z,24.80
2018-03-26T03:35:08.358Z,29.87
2018-03-26T03:37:41.334Z,27.40
2018-03-26T03:40:14.750Z,26.87
2018-03-26T03:42:47.768Z,28.47
2018-03-26T03:45:21.211Z,24.60
2018-03-26T03:47:55.569Z,25.60
2018-03-26T03:50:29.795Z,26.40
2018-03-26T03:53:02.679Z,24.37
2018-03-26T03:55:36.070Z,23.40
2018-03-26T03:58:09.027Z,24.70
2018-03-26T04:00:42.149Z,27.30
2018-03-26T04:03:15.249Z,26.60
2018-03-26T04:05:48.701Z,25.27
2018-03-26T04:08:22.155Z,26.37
2018-03-26T04:10:55.308Z,28.23
2018-03-26T04:13:28.666Z,27.60
2018-03-26T04:16:01.848Z,26.27
2018-03-26T04:18:34.684Z,28.30
2018-03-26T04:21:08.315Z,25.00
2018-03-26T04:23:42.097Z,24.93
2018-03-26T04:26:15.118Z,24.60
2018-03-26T04:28:48.174Z,26.00
2018-03-26T04:31:21.837Z,29.53
2018-03-26T04:33:54.738Z,25.90
2018-03-26T04:36:27.781Z,26.40
2018-03-26T04:39:00.981Z,26.83
2018-03-26T04:41:34.593Z,26.20
2018-03-26T04:44:07.515Z,25.43
2018-03-26T04:46:40.967Z,29.50
2018-03-26T04:49:14.304Z,30.07
2018-03-26T04:51:47.967Z,29.73
2018-03-26T04:54:21.116Z,29.40
2018-03-26T04:56:54.359Z,27.30
2018-03-26T04:59:27.521Z,24.43
2018-03-26T05:02:00.481Z,25.83
2018-03-26T05:04:33.720Z,26.73
2018-03-26T05:07:07.386Z,25.73
2018-03-26T05:09:41.452Z,25.70
2018-03-26T05:12:15.551Z,25.03
2018-03-26T05:14:48.888Z,31.63
2018-03-26T05:17:22.446Z,26.27
2018-03-26T05:19:56.135Z,25.27
2018-03-26T05:22:30.691Z,25.43
2018-03-26T05:25:04.699Z,24.97
2018-03-26T05:27:38.180Z,25.57
2018-03-26T05:30:12.413Z,24.53
2018-03-26T05:32:46.115Z,25.27
2018-03-26T05:35:19.767Z,23.27
2018-03-26T05:37:56.470Z,24.70
2018-03-26T05:40:31.800Z,24.20
2018-03-26T05:44:35.447Z,22.33
2018-03-26T05:47:11.158Z,26.73
2018-03-26T05:49:44.211Z,23.13
2018-03-26T05:52:18.122Z,24.63
2018-03-26T05:54:51.816Z,28.73
2018-03-26T05:57:26.091Z,24.73
2018-03-26T05:59:59.267Z,24.40
2018-03-26T06:02:33.436Z,23.60
2018-03-26T06:05:06.881Z,23.63
2018-03-26T06:07:40.126Z,23.20
2018-03-26T06:10:14.725Z,21.47
2018-03-26T06:12:48.187Z,23.03
2018-03-26T06:15:21.605Z,27.73
2018-03-26T06:17:56.452Z,25.17
2018-03-26T06:20:30.169Z,23.30
2018-03-26T06:23:06.977Z,21.63
2018-03-26T06:25:40.441Z,24.73
2018-03-26T06:28:15.610Z,24.23
2018-03-26T06:30:49.162Z,22.80
2018-03-26T06:33:22.504Z,23.20
2018-03-26T06:35:56.182Z,21.83
2018-03-26T06:38:29.722Z,22.87
2018-03-26T06:41:03.525Z,23.83
2018-03-26T06:43:40.203Z,22.37
2018-03-26T06:46:15.432Z,22.77
2018-03-26T06:48:48.573Z,22.67
2018-03-26T06:51:21.831Z,24.00
2018-03-26T06:53:55.609Z,25.00
2018-03-26T06:56:28.792Z,25.43
2018-03-26T06:59:01.923Z,27.13
2018-03-26T07:01:35.187Z,29.27
2018-03-26T07:04:10.529Z,25.90
2018-03-26T07:06:45.319Z,27.73
2018-03-26T07:09:18.612Z,30.77
2018-03-26T07:11:53.589Z,28.93
2018-03-26T07:14:27.028Z,26.50
2018-03-26T07:17:00.751Z,27.43
2018-03-26T07:19:34.705Z,27.83
2018-03-26T07:22:07.701Z,28.60
2018-03-26T07:24:42.034Z,30.23
2018-03-26T07:27:15.862Z,31.27
2018-03-26T07:29:49.068Z,31.10
2018-03-26T07:32:22.894Z,27.87
2018-03-26T07:34:56.034Z,28.63
2018-03-26T07:37:29.064Z,28.73
2018-03-26T07:40:07.722Z,30.77
2018-03-26T07:42:41.852Z,28.80
2018-03-26T07:45:17.672Z,30.43
2018-03-26T07:47:51.892Z,29.63
2018-03-26T07:50:25.705Z,31.20
2018-03-26T07:52:59.397Z,29.80
2018-03-26T07:55:32.868Z,32.33
2018-03-26T07:58:07.754Z,30.00
2018-03-26T08:00:42.287Z,26.60
2018-03-26T08:03:18.129Z,26.50
2018-03-26T08:05:51.626Z,28.30
2018-03-26T08:08:25.301Z,30.17
2018-03-26T08:10:58.360Z,33.50
2018-03-26T08:13:32.085Z,32.60
2018-03-26T08:16:06.355Z,33.13
2018-03-26T08:18:39.417Z,34.03
2018-03-26T08:21:14.667Z,29.13
2018-03-26T08:23:50.710Z,32.73
2018-03-26T08:26:24.297Z,33.40
2018-03-26T08:28:57.621Z,31.00
2018-03-26T08:31:31.816Z,30.23
2018-03-26T08:34:04.882Z,32.70
2018-03-26T08:36:37.997Z,29.10
2018-03-26T08:39:11.885Z,30.37
2018-03-26T08:41:46.204Z,30.27
2018-03-26T08:44:19.600Z,30.70
2018-03-26T08:46:53.716Z,30.37
2018-03-26T08:49:27.673Z,28.30
2018-03-26T08:52:00.929Z,31.37
2018-03-26T08:54:34.678Z,28.17
2018-03-26T08:57:08.028Z,28.33
2018-03-26T08:59:41.219Z,27.57
2018-03-26T09:02:15.901Z,27.20
2018-03-26T09:04:50.074Z,30.43
2018-03-26T09:07:23.428Z,30.60
2018-03-26T09:09:59.964Z,26.57
2018-03-26T09:12:36.139Z,27.43
2018-03-26T09:15:09.600Z,27.13
2018-03-26T09:17:43.888Z,28.83
2018-03-26T09:20:18.314Z,24.57
2018-03-26T09:22:51.449Z,27.20
2018-03-26T09:25:30.241Z,24.87
2018-03-26T09:28:04.075Z,29.70
2018-03-26T09:30:38.600Z,26.70
2018-03-26T09:33:13.087Z,25.93
2018-03-26T09:35:46.665Z,26.77
2018-03-26T09:38:42.743Z,25.77
2018-03-26T09:41:19.818Z,28.83
2018-03-26T09:43:52.885Z,25.20
2018-03-26T09:46:26.199Z,26.73
2018-03-26T09:49:02.354Z,29.50
2018-03-26T09:51:36.058Z,27.10
2018-03-26T09:54:09.614Z,28.97
2018-03-26T09:56:43.888Z,26.77
2018-03-26T09:59:18.005Z,30.13
2018-03-26T10:01:55.479Z,26.53
2018-03-26T10:04:28.685Z,27.97
2018-03-26T10:07:04.098Z,28.23
2018-03-26T10:09:37.388Z,29.00
2018-03-26T10:12:11.808Z,28.90
2018-03-26T10:14:45.825Z,28.60
2018-03-26T10:17:19.439Z,28.70
2018-03-26T10:19:52.863Z,29.63
2018-03-26T10:22:26.264Z,28.70
2018-03-26T10:25:05.245Z,32.97
2018-03-26T10:27:40.765Z,29.50
2018-03-26T10:30:15.731Z,31.53
2018-03-26T10:32:49.350Z,30.83
2018-03-26T10:35:23.096Z,30.83
2018-03-26T10:37:56.650Z,30.57
2018-03-26T10:40:30.131Z,31.53
2018-03-26T10:43:14.669Z,30.77
2018-03-26T10:46:00.629Z,32.17
2018-03-26T10:48:39.512Z,29.30
2018-03-26T10:51:12.933Z,32.57
2018-03-26T10:53:46.976Z,32.17
2018-03-26T10:56:22.099Z,31.60
2018-03-26T10:58:56.031Z,29.53
2018-03-26T11:01:30.069Z,31.53
2018-03-26T11:04:03.514Z,30.30
2018-03-26T11:06:37.336Z,30.80
2018-03-26T11:09:14.230Z,30.87
2018-03-26T11:11:48.521Z,29.87
2018-03-26T11:14:21.581Z,30.83
2018-03-26T11:16:54.792Z,30.40
2018-03-26T11:19:29.613Z,31.10
2018-03-26T11:22:11.098Z,31.80
2018-03-26T11:24:45.078Z,32.10
2018-03-26T11:27:18.670Z,31.17
2018-03-26T11:29:53.972Z,33.87
2018-03-26T11:32:27.479Z,34.13
2018-03-26T11:35:00.741Z,31.30
2018-03-26T11:37:34.535Z,36.33
2018-03-26T11:40:08.903Z,33.53
2018-03-26T11:42:43.788Z,32.17
2018-03-26T11:45:17.333Z,34.43
2018-03-26T11:47:51.170Z,33.17
2018-03-26T11:50:24.970Z,35.80
2018-03-26T11:52:58.463Z,34.30
2018-03-26T11:55:32.126Z,33.37
2018-03-26T11:58:05.544Z,34.50
2018-03-26T12:00:40.912Z,35.97
2018-03-26T12:03:14.858Z,33.37
2018-03-26T12:05:48.024Z,36.87
2018-03-26T12:08:21.146Z,36.43
2018-03-26T12:10:55.511Z,34.57
2018-03-26T12:13:28.593Z,33.10
2018-03-26T12:16:01.706Z,36.07
2018-03-26T12:18:37.977Z,34.37
2018-03-26T12:21:11.457Z,35.83
2018-03-26T12:25:03.025Z,35.13
2018-03-26T12:27:41.983Z,34.57
2018-03-26T12:30:21.220Z,36.37
2018-03-26T12:32:54.785Z,41.00
2018-03-26T12:35:39.441Z,37.03
2018-03-26T12:38:12.456Z,34.70
2018-03-26T12:40:51.427Z,34.17
2018-03-26T12:43:24.678Z,31.20
2018-03-26T12:47:02.601Z,34.13
2018-03-26T12:49:36.332Z,33.63
2018-03-26T12:52:51.629Z,32.77
2018-03-26T12:55:27.928Z,31.50
2018-03-26T12:58:15.389Z,33.50
2018-03-26T13:01:01.712Z,31.07
2018-03-26T13:03:35.827Z,32.17
2018-03-26T13:06:09.539Z,31.97
2018-03-26T13:08:45.716Z,32.83
2018-03-26T13:11:19.066Z,31.80
2018-03-26T13:13:52.662Z,29.57
2018-03-26T13:16:26.559Z,32.50
2018-03-26T13:19:01.204Z,33.67
2018-03-26T13:21:36.919Z,33.50
2018-03-26T13:24:10.773Z,33.30
2018-03-26T13:26:46.443Z,33.23
2018-03-26T13:29:20.930Z,33.50
2018-03-26T13:31:55.089Z,34.27
2018-03-26T13:34:28.876Z,34.80
2018-03-26T13:37:02.276Z,34.37
2018-03-26T13:39:35.640Z,35.37
2018-03-26T13:42:09.720Z,34.10
2018-03-26T13:44:43.615Z,35.27
2018-03-26T13:47:17.260Z,33.80
2018-03-26T13:49:52.142Z,29.27
2018-03-26T13:52:26.320Z,30.67
2018-03-26T13:55:00.552Z,31.13
2018-03-26T13:57:34.120Z,30.37
2018-03-26T14:00:08.218Z,28.20
2018-03-26T14:02:42.949Z,28.87
2018-03-26T14:05:19.247Z,28.53
2018-03-26T14:07:53.963Z,29.87
2018-03-26T14:12:42.429Z,28.57
2018-03-26T14:17:55.711Z,27.90
2018-03-26T14:22:52.036Z,26.70
2018-03-26T14:25:26.076Z,27.40
2018-03-26T14:27:59.883Z,26.33
2018-03-26T14:30:34.238Z,25.30
2018-03-26T14:33:12.241Z,23.67
2018-03-26T14:35:49.077Z,26.37
2018-03-26T14:38:25.573Z,24.03
2018-03-26T14:40:59.606Z,24.50
2018-03-26T14:43:35.044Z,24.30
2018-03-26T14:46:14.167Z,24.23
2018-03-26T14:48:49.650Z,23.07
2018-03-26T14:51:22.784Z,20.37
2018-03-26T14:53:58.100Z,19.33
2018-03-26T14:56:31.094Z,19.00
2018-03-26T14:59:04.353Z,16.93
2018-03-26T15:01:38.486Z,17.13
2018-03-26T15:04:12.168Z,21.23
2018-03-26T15:06:45.570Z,15.50
2018-03-26T15:09:19.316Z,16.17
2018-03-26T15:11:54.042Z,17.63
2018-03-26T15:14:27.595Z,21.37
2018-03-26T15:17:02.035Z,21.37
2018-03-26T15:19:37.878Z,22.07
2018-03-26T15:22:13.291Z,21.23
2018-03-26T15:24:46.509Z,19.10
2018-03-26T15:27:20.154Z,20.37
2018-03-26T15:29:53.835Z,18.57
2018-03-26T15:32:26.960Z,19.50
2018-03-26T15:35:01.501Z,19.17
2018-03-26T15:37:35.177Z,24.03
2018-03-26T15:40:08.254Z,24.97
2018-03-26T15:42:43.715Z,23.33
2018-03-26T15:45:17.902Z,23.63
2018-03-26T15:47:51.206Z,24.60
2018-03-26T15:50:25.080Z,24.33
2018-03-26T15:52:58.887Z,24.67
2018-03-26T15:55:32.726Z,27.50
2018-03-26T15:58:07.233Z,25.77
2018-03-26T16:00:47.618Z,26.33
2018-03-26T16:03:25.188Z,30.83
2018-03-26T16:05:58.787Z,26.00
2018-03-26T16:08:32.289Z,27.67
2018-03-26T16:11:06.773Z,23.13
2018-03-26T16:13:40.335Z,24.90
2018-03-26T16:16:13.504Z,26.63
2018-03-26T16:18:47.963Z,26.60
2018-03-26T16:21:22.210Z,24.53
2018-03-26T16:23:55.394Z,25.33
2018-03-26T16:26:29.655Z,22.97
2018-03-26T16:29:02.785Z,28.73
2018-03-26T16:31:35.951Z,26.03
2018-03-26T16:34:09.517Z,30.97
2018-03-26T16:36:42.547Z,31.03
2018-03-26T16:39:15.809Z,29.47
2018-03-26T16:41:50.379Z,27.23
2018-03-26T16:44:23.953Z,26.23
2018-03-26T16:46:57.574Z,26.73
2018-03-26T16:49:31.930Z,24.23
2018-03-26T16:52:05.116Z,22.70
2018-03-26T16:54:38.230Z,21.80
2018-03-26T16:57:12.847Z,21.43
2018-03-26T16:59:46.191Z,19.63
2018-03-26T17:02:19.923Z,19.03
2018-03-26T17:04:55.892Z,19.07
2018-03-26T17:07:30.620Z,18.70
2018-03-26T17:10:06.425Z,23.03
2018-03-26T17:12:41.529Z,22.47
2018-03-26T17:15:16.387Z,19.90
2018-03-26T17:17:50.292Z,16.80
2018-03-26T17:20:24.813Z,16.90
2018-03-26T17:22:58.019Z,18.53
2018-03-26T17:25:31.293Z,22.20
2018-03-26T17:28:04.523Z,21.73
2018-03-26T17:30:39.190Z,22.53
2018-03-26T17:33:12.971Z,23.43
2018-03-26T17:35:47.041Z,27.13
2018-03-26T17:38:20.556Z,27.40
2018-03-26T17:40:55.288Z,36.83
2018-03-26T17:43:31.976Z,35.53
2018-03-26T17:46:05.671Z,29.47
2018-03-26T17:48:46.997Z,27.17
2018-03-26T17:51:21.181Z,26.20
2018-03-26T17:53:56.164Z,27.70
2018-03-26T17:56:29.484Z,25.77
2018-03-26T17:59:03.238Z,23.17
2018-03-26T18:01:38.469Z,25.13
2018-03-26T18:04:13.153Z,22.33
2018-03-26T18:06:46.658Z,22.07
2018-03-26T18:09:20.742Z,22.40
2018-03-26T18:11:53.915Z,26.83
2018-03-26T18:14:27.500Z,58.43
2018-03-26T18:17:02.380Z,58.33
2018-03-26T18:19:35.378Z,34.90
2018-03-26T18:22:09.795Z,25.30
2018-03-26T18:24:49.585Z,22.50
2018-03-26T18:27:24.373Z,21.40
2018-03-26T18:29:58.530Z,23.97
2018-03-26T18:32:33.053Z,29.17
2018-03-26T18:35:06.687Z,29.17
2018-03-26T18:37:41.032Z,26.57
2018-03-26T18:40:14.499Z,24.53
2018-03-26T18:42:47.815Z,24.10
2018-03-26T18:45:23.514Z,24.87
2018-03-26T18:48:01.185Z,22.90
2018-03-26T18:50:37.366Z,23.17
2018-03-26T18:53:11.219Z,21.47
2018-03-26T18:55:50.725Z,23.80
2018-03-26T18:58:28.588Z,23.20
2018-03-26T19:01:08.378Z,27.37
2018-03-26T19:03:47.239Z,28.97
2018-03-26T19:06:23.576Z,36.47
2018-03-26T19:09:00.622Z,41.10
2018-03-26T19:11:36.764Z,32.40
2018-03-26T19:14:11.090Z,27.77
2018-03-26T19:16:45.859Z,27.07
2018-03-26T19:19:22.870Z,26.23
2018-03-26T19:22:02.377Z,26.53
2018-03-26T19:24:39.429Z,27.97
2018-03-26T19:27:18.488Z,24.93
2018-03-26T19:29:56.711Z,26.70
2018-03-26T19:32:31.590Z,25.83
2018-03-26T19:35:06.099Z,27.20
2018-03-26T19:37:39.743Z,27.77
2018-03-26T19:40:14.966Z,27.10
2018-03-26T19:42:50.306Z,26.93
2018-03-26T19:45:26.671Z,27.63
2018-03-26T19:48:02.400Z,27.47
2018-03-26T19:50:43.005Z,28.37
2018-03-26T19:53:17.328Z,26.23
2018-03-26T19:55:54.936Z,26.77
2018-03-26T19:58:29.252Z,26.33
2018-03-26T20:01:03.097Z,25.50
2018-03-26T20:03:38.201Z,26.17
2018-03-26T20:06:14.244Z,25.87
2018-03-26T20:08:47.743Z,25.33
2018-03-26T20:11:22.933Z,26.57
2018-03-26T20:14:00.089Z,32.90
2018-03-26T20:16:38.473Z,28.20
2018-03-26T20:19:13.413Z,26.87
2018-03-26T20:21:50.521Z,25.73
2018-03-26T20:24:28.594Z,23.90
2018-03-26T20:27:03.248Z,28.17
2018-03-26T20:29:42.917Z,28.90
2018-03-26T20:32:22.609Z,25.33
2018-03-26T20:35:00.661Z,26.47
2018-03-26T20:37:36.447Z,28.03
2018-03-26T20:40:10.639Z,28.73
2018-03-26T20:42:46.473Z,26.90
2018-03-26T20:45:24.536Z,30.17
2018-03-26T20:48:01.995Z,29.93
2018-03-26T20:50:40.716Z,27.47
2018-03-26T20:53:18.505Z,29.13
2018-03-26T20:55:54.372Z,27.97
2018-03-26T20:58:39.004Z,26.03
2018-03-26T21:01:18.428Z,26.37
2018-03-26T21:03:56.221Z,25.70
2018-03-26T21:06:32.287Z,32.23
2018-03-26T21:09:08.543Z,34.13
2018-03-26T21:11:45.415Z,33.80
2018-03-26T21:14:21.295Z,34.83
2018-03-26T21:16:54.679Z,30.50
2018-03-26T21:19:28.559Z,29.10
2018-03-26T21:22:02.525Z,26.00
2018-03-26T21:24:36.690Z,27.70
2018-03-26T21:27:10.383Z,30.83
2018-03-26T21:29:49.315Z,27.53
2018-03-26T21:32:30.418Z,29.37
2018-03-26T21:35:05.292Z,28.67
2018-03-26T21:37:38.738Z,23.57
2018-03-26T21:40:12.556Z,20.33
2018-03-26T21:42:46.286Z,20.33
2018-03-26T21:45:20.112Z,18.63
2018-03-26T21:47:53.231Z,15.53
2018-03-26T21:50:26.991Z,13.73
2018-03-26T21:53:00.033Z,14.57
2018-03-26T21:55:33.211Z,12.13
2018-03-26T21:58:06.754Z,15.50
2018-03-26T22:00:40.270Z,16.23
2018-03-26T22:03:15.666Z,15.40
2018-03-26T22:05:49.196Z,14.17
2018-03-26T22:08:22.417Z,14.13
2018-03-26T22:10:56.082Z,14.67
2018-03-26T22:13:30.170Z,12.60
2018-03-26T22:16:03.871Z,13.83
2018-03-26T22:18:37.111Z,14.30
2018-03-26T22:21:11.085Z,16.73
2018-03-26T22:23:44.229Z,15.00
2018-03-26T22:26:17.283Z,15.33
2018-03-26T22:28:51.079Z,14.57
2018-03-26T22:31:24.309Z,16.67
2018-03-26T22:33:57.465Z,15.17
2018-03-26T22:36:32.188Z,14.27
2018-03-26T22:39:05.494Z,15.70
2018-03-26T22:41:39.396Z,14.53
2018-03-26T22:44:12.845Z,14.27
2018-03-26T22:46:46.005Z,17.20
2018-03-26T22:49:19.706Z,17.80
2018-03-26T22:51:55.354Z,17.57
2018-03-26T22:54:29.274Z,20.33
2018-03-26T22:57:04.041Z,22.03
2018-03-26T22:59:37.459Z,20.97
2018-03-26T23:02:11.167Z,19.47
2018-03-26T23:04:44.500Z,21.70
2018-03-26T23:07:17.924Z,20.83
2018-03-26T23:09:50.962Z,23.60
2018-03-26T23:12:24.113Z,22.90
2018-03-26T23:14:57.670Z,24.63
2018-03-26T23:17:31.091Z,23.70
2018-03-26T23:20:05.283Z,23.03
2018-03-26T23:22:47.422Z,23.80
2018-03-26T23:25:21.163Z,25.37
2018-03-26T23:27:54.620Z,24.23
2018-03-26T23:30:28.250Z,28.13
2018-03-26T23:33:01.651Z,27.17
2018-03-26T23:35:35.250Z,24.87
2018-03-26T23:38:09.080Z,25.60
2018-03-26T23:40:44.083Z,26.20
2018-03-26T23:43:19.666Z,23.33
2018-03-26T23:45:53.743Z,25.00
2018-03-26T23:48:27.285Z,25.37
2018-03-26T23:51:01.647Z,25.57
2018-03-26T23:53:34.808Z,24.60
2018-03-26T23:56:08.661Z,23.30
2018-03-26T23:58:42.238Z,25.70
